sensor_id;sensor_type;location;lat;lon;timestamp;temperature;humidity
50556;DHT22;36508;52.512;13.450;2023-05-07T00:00:25;10.60;99.90
50556;DHT22;36508;52.512;13.450;2023-05-07T00:02:51;10.60;99.90
50556;DHT22;36508;52.512;13.450;2023-05-07T00:05:17;10.60;99.90
50556;DHT22;36508;52.512;13.450;2023-05-07T00:07:42;10.60;99.90
50556;DHT22;36508;52.512;13.450;2023-05-07T00:10:09;10.60;99.90
50556;DHT22;36508;52.512;13.450;2023-05-07T00:12:35;10.70;99.90
50556;DHT22;36508;52.512;13.450;2023-05-07T00:15:05;10.70;99.90
50556;DHT22;36508;52.512;13.450;2023-05-07T00:17:32;10.70;99.90
50556;DHT22;36508;52.512;13.450;2023-05-07T00:19:58;10.70;99.90
50556;DHT22;36508;52.512;13.450;2023-05-07T00:22:23;10.70;99.90
50556;DHT22;36508;52.512;13.450;2023-05-07T00:24:49;10.70;99.90
50556;DHT22;36508;52.512;13.450;2023-05-07T00:27:14;10.70;99.90
50556;DHT22;36508;52.512;13.450;2023-05-07T00:29:40;10.70;99.90
50556;DHT22;36508;52.512;13.450;2023-05-07T00:32:06;10.60;99.90
50556;DHT22;36508;52.512;13.450;2023-05-07T00:34:31;10.70;99.90
50556;DHT22;36508;52.512;13.450;2023-05-07T00:36:57;10.70;99.90
50556;DHT22;36508;52.512;13.450;2023-05-07T00:39:23;10.80;99.90
50556;DHT22;36508;52.512;13.450;2023-05-07T00:41:48;10.70;99.90
50556;DHT22;36508;52.512;13.450;2023-05-07T00:44:14;10.70;99.90
50556;DHT22;36508;52.512;13.450;2023-05-07T00:46:40;10.60;99.90
50556;DHT22;36508;52.512;13.450;2023-05-07T00:49:06;10.60;99.90
50556;DHT22;36508;52.512;13.450;2023-05-07T00:51:32;10.50;99.90
50556;DHT22;36508;52.512;13.450;2023-05-07T00:53:59;10.60;99.90
50556;DHT22;36508;52.512;13.450;2023-05-07T00:56:26;10.50;99.90
50556;DHT22;36508;52.512;13.450;2023-05-07T00:58:52;10.50;99.90
50556;DHT22;36508;52.512;13.450;2023-05-07T01:01:17;10.50;99.90
50556;DHT22;36508;52.512;13.450;2023-05-07T01:03:43;10.50;99.90
50556;DHT22;36508;52.512;13.450;2023-05-07T01:06:10;10.50;99.90
50556;DHT22;36508;52.512;13.450;2023-05-07T01:08:38;10.60;99.90
50556;DHT22;36508;52.512;13.450;2023-05-07T01:11:06;10.60;99.90
50556;DHT22;36508;52.512;13.450;2023-05-07T01:13:33;10.60;99.90
50556;DHT22;36508;52.512;13.450;2023-05-07T01:15:59;10.60;99.90
50556;DHT22;36508;52.512;13.450;2023-05-07T01:18:25;10.70;99.90
50556;DHT22;36508;52.512;13.450;2023-05-07T01:20:52;10.70;99.90
50556;DHT22;36508;52.512;13.450;2023-05-07T01:23:18;10.70;99.90
50556;DHT22;36508;52.512;13.450;2023-05-07T01:25:53;10.60;99.90
50556;DHT22;36508;52.512;13.450;2023-05-07T01:28:19;10.50;99.90
50556;DHT22;36508;52.512;13.450;2023-05-07T01:30:48;10.60;99.90
50556;DHT22;36508;52.512;13.450;2023-05-07T01:33:19;10.60;99.90
50556;DHT22;36508;52.512;13.450;2023-05-07T01:35:48;10.50;99.90
50556;DHT22;36508;52.512;13.450;2023-05-07T01:38:16;10.50;99.90
50556;DHT22;36508;52.512;13.450;2023-05-07T01:40:42;10.60;99.90
50556;DHT22;36508;52.512;13.450;2023-05-07T01:43:08;10.70;99.90
50556;DHT22;36508;52.512;13.450;2023-05-07T01:45:35;10.70;99.90
50556;DHT22;36508;52.512;13.450;2023-05-07T01:48:02;10.70;99.90
50556;DHT22;36508;52.512;13.450;2023-05-07T01:50:29;10.70;99.90
50556;DHT22;36508;52.512;13.450;2023-05-07T01:52:55;10.80;99.90
50556;DHT22;36508;52.512;13.450;2023-05-07T01:55:21;10.80;99.90
50556;DHT22;36508;52.512;13.450;2023-05-07T01:57:47;10.70;99.90
50556;DHT22;36508;52.512;13.450;2023-05-07T02:00:12;10.60;99.90
50556;DHT22;36508;52.512;13.450;2023-05-07T02:02:38;10.60;99.90
50556;DHT22;36508;52.512;13.450;2023-05-07T02:05:04;10.60;99.90
50556;DHT22;36508;52.512;13.450;2023-05-07T02:07:30;10.70;99.90
50556;DHT22;36508;52.512;13.450;2023-05-07T02:09:55;10.70;99.90
50556;DHT22;36508;52.512;13.450;2023-05-07T02:12:22;10.70;99.90
50556;DHT22;36508;52.512;13.450;2023-05-07T02:14:48;10.60;99.90
50556;DHT22;36508;52.512;13.450;2023-05-07T02:17:13;10.60;99.90
50556;DHT22;36508;52.512;13.450;2023-05-07T02:19:39;10.50;99.90
50556;DHT22;36508;52.512;13.450;2023-05-07T02:22:04;10.50;99.90
50556;DHT22;36508;52.512;13.450;2023-05-07T02:24:30;10.60;99.90
50556;DHT22;36508;52.512;13.450;2023-05-07T02:26:56;10.60;99.90
50556;DHT22;36508;52.512;13.450;2023-05-07T02:29:21;10.60;99.90
50556;DHT22;36508;52.512;13.450;2023-05-07T02:31:47;10.60;99.90
50556;DHT22;36508;52.512;13.450;2023-05-07T02:34:16;10.60;99.90
50556;DHT22;36508;52.512;13.450;2023-05-07T02:36:42;10.60;99.90
50556;DHT22;36508;52.512;13.450;2023-05-07T02:39:08;10.50;99.90
50556;DHT22;36508;52.512;13.450;2023-05-07T02:41:34;10.40;99.90
50556;DHT22;36508;52.512;13.450;2023-05-07T02:43:59;10.40;99.90
50556;DHT22;36508;52.512;13.450;2023-05-07T02:46:25;10.50;99.90
50556;DHT22;36508;52.512;13.450;2023-05-07T02:48:51;10.50;99.90
50556;DHT22;36508;52.512;13.450;2023-05-07T02:51:21;10.50;99.90
50556;DHT22;36508;52.512;13.450;2023-05-07T02:53:47;10.50;99.90
50556;DHT22;36508;52.512;13.450;2023-05-07T02:56:13;10.40;99.90
50556;DHT22;36508;52.512;13.450;2023-05-07T02:58:39;10.50;99.90
50556;DHT22;36508;52.512;13.450;2023-05-07T03:01:13;10.60;99.90
50556;DHT22;36508;52.512;13.450;2023-05-07T03:03:39;10.60;99.90
50556;DHT22;36508;52.512;13.450;2023-05-07T03:06:05;10.60;99.90
50556;DHT22;36508;52.512;13.450;2023-05-07T03:08:32;10.60;99.90
50556;DHT22;36508;52.512;13.450;2023-05-07T03:10:57;10.70;99.90
50556;DHT22;36508;52.512;13.450;2023-05-07T03:13:23;10.70;99.90
50556;DHT22;36508;52.512;13.450;2023-05-07T03:15:49;10.70;99.90
50556;DHT22;36508;52.512;13.450;2023-05-07T03:18:14;10.50;99.90
50556;DHT22;36508;52.512;13.450;2023-05-07T03:20:40;10.50;99.90
50556;DHT22;36508;52.512;13.450;2023-05-07T03:23:05;10.40;99.90
50556;DHT22;36508;52.512;13.450;2023-05-07T03:25:32;10.50;99.90
50556;DHT22;36508;52.512;13.450;2023-05-07T03:27:58;10.50;99.90
50556;DHT22;36508;52.512;13.450;2023-05-07T03:30:24;10.50;99.90
50556;DHT22;36508;52.512;13.450;2023-05-07T03:32:49;10.50;99.90
50556;DHT22;36508;52.512;13.450;2023-05-07T03:35:15;10.40;99.90
50556;DHT22;36508;52.512;13.450;2023-05-07T03:37:41;10.30;99.90
50556;DHT22;36508;52.512;13.450;2023-05-07T03:40:07;10.40;99.90
50556;DHT22;36508;52.512;13.450;2023-05-07T03:42:35;10.50;99.90
50556;DHT22;36508;52.512;13.450;2023-05-07T03:45:01;10.50;99.90
50556;DHT22;36508;52.512;13.450;2023-05-07T03:47:28;10.50;99.90
50556;DHT22;36508;52.512;13.450;2023-05-07T03:49:55;10.50;99.90
50556;DHT22;36508;52.512;13.450;2023-05-07T03:52:21;10.50;99.90
50556;DHT22;36508;52.512;13.450;2023-05-07T03:54:51;10.50;99.90
50556;DHT22;36508;52.512;13.450;2023-05-07T03:57:17;10.40;99.90
50556;DHT22;36508;52.512;13.450;2023-05-07T03:59:43;10.40;99.90
50556;DHT22;36508;52.512;13.450;2023-05-07T04:02:08;10.40;99.90
50556;DHT22;36508;52.512;13.450;2023-05-07T04:04:34;10.40;99.90
50556;DHT22;36508;52.512;13.450;2023-05-07T04:06:59;10.40;99.90
50556;DHT22;36508;52.512;13.450;2023-05-07T04:09:26;10.40;99.90
50556;DHT22;36508;52.512;13.450;2023-05-07T04:11:51;10.50;99.90
50556;DHT22;36508;52.512;13.450;2023-05-07T04:14:17;10.50;99.90
50556;DHT22;36508;52.512;13.450;2023-05-07T04:16:42;10.50;99.90
50556;DHT22;36508;52.512;13.450;2023-05-07T04:19:08;10.40;99.90
50556;DHT22;36508;52.512;13.450;2023-05-07T04:21:33;10.50;99.90
50556;DHT22;36508;52.512;13.450;2023-05-07T04:23:59;10.50;99.90
50556;DHT22;36508;52.512;13.450;2023-05-07T04:26:24;10.50;99.90
50556;DHT22;36508;52.512;13.450;2023-05-07T04:28:50;10.50;99.90
50556;DHT22;36508;52.512;13.450;2023-05-07T04:31:16;10.50;99.90
50556;DHT22;36508;52.512;13.450;2023-05-07T04:33:41;10.50;99.90
50556;DHT22;36508;52.512;13.450;2023-05-07T04:36:07;10.60;99.90
50556;DHT22;36508;52.512;13.450;2023-05-07T04:38:33;10.60;99.90
50556;DHT22;36508;52.512;13.450;2023-05-07T04:41:06;10.60;99.90
50556;DHT22;36508;52.512;13.450;2023-05-07T04:43:32;10.60;99.90
50556;DHT22;36508;52.512;13.450;2023-05-07T04:45:58;10.60;99.90
50556;DHT22;36508;52.512;13.450;2023-05-07T04:48:23;10.60;99.90
50556;DHT22;36508;52.512;13.450;2023-05-07T04:50:50;10.70;99.90
50556;DHT22;36508;52.512;13.450;2023-05-07T04:53:16;10.70;99.90
50556;DHT22;36508;52.512;13.450;2023-05-07T04:55:43;10.70;99.90
50556;DHT22;36508;52.512;13.450;2023-05-07T04:58:09;10.70;99.90
50556;DHT22;36508;52.512;13.450;2023-05-07T05:00:34;10.50;99.90
50556;DHT22;36508;52.512;13.450;2023-05-07T05:03:00;10.60;99.90
50556;DHT22;36508;52.512;13.450;2023-05-07T05:05:25;10.60;99.90
50556;DHT22;36508;52.512;13.450;2023-05-07T05:07:51;10.60;99.90
50556;DHT22;36508;52.512;13.450;2023-05-07T05:10:17;10.70;99.90
50556;DHT22;36508;52.512;13.450;2023-05-07T05:12:43;10.90;99.90
50556;DHT22;36508;52.512;13.450;2023-05-07T05:15:11;11.00;99.90
50556;DHT22;36508;52.512;13.450;2023-05-07T05:17:38;11.00;99.90
50556;DHT22;36508;52.512;13.450;2023-05-07T05:20:04;11.10;99.90
50556;DHT22;36508;52.512;13.450;2023-05-07T05:22:31;11.00;99.90
50556;DHT22;36508;52.512;13.450;2023-05-07T05:24:57;11.00;99.90
50556;DHT22;36508;52.512;13.450;2023-05-07T05:27:22;10.90;99.90
50556;DHT22;36508;52.512;13.450;2023-05-07T05:29:48;10.70;99.90
50556;DHT22;36508;52.512;13.450;2023-05-07T05:32:14;10.80;99.90
50556;DHT22;36508;52.512;13.450;2023-05-07T05:34:39;10.90;99.90
50556;DHT22;36508;52.512;13.450;2023-05-07T05:37:07;11.00;99.90
50556;DHT22;36508;52.512;13.450;2023-05-07T05:39:33;11.00;99.90
50556;DHT22;36508;52.512;13.450;2023-05-07T05:41:59;11.10;99.90
50556;DHT22;36508;52.512;13.450;2023-05-07T05:44:25;11.00;99.90
50556;DHT22;36508;52.512;13.450;2023-05-07T05:46:50;11.00;99.90
50556;DHT22;36508;52.512;13.450;2023-05-07T05:49:16;11.10;99.90
50556;DHT22;36508;52.512;13.450;2023-05-07T05:51:43;11.20;99.90
50556;DHT22;36508;52.512;13.450;2023-05-07T05:54:09;11.20;99.90
50556;DHT22;36508;52.512;13.450;2023-05-07T05:56:34;11.20;99.90
50556;DHT22;36508;52.512;13.450;2023-05-07T05:59:00;11.00;99.90
50556;DHT22;36508;52.512;13.450;2023-05-07T06:01:25;11.00;99.90
50556;DHT22;36508;52.512;13.450;2023-05-07T06:03:52;11.00;99.90
50556;DHT22;36508;52.512;13.450;2023-05-07T06:06:17;11.00;99.90
50556;DHT22;36508;52.512;13.450;2023-05-07T06:08:43;11.00;99.90
50556;DHT22;36508;52.512;13.450;2023-05-07T06:11:08;11.20;99.90
50556;DHT22;36508;52.512;13.450;2023-05-07T06:13:34;11.20;99.90
50556;DHT22;36508;52.512;13.450;2023-05-07T06:16:00;11.30;99.90
50556;DHT22;36508;52.512;13.450;2023-05-07T06:18:25;11.40;99.90
50556;DHT22;36508;52.512;13.450;2023-05-07T06:20:52;11.40;99.90
50556;DHT22;36508;52.512;13.450;2023-05-07T06:23:18;11.40;99.90
50556;DHT22;36508;52.512;13.450;2023-05-07T06:25:48;11.40;99.90
50556;DHT22;36508;52.512;13.450;2023-05-07T06:28:14;11.50;99.90
50556;DHT22;36508;52.512;13.450;2023-05-07T06:30:40;11.60;99.90
50556;DHT22;36508;52.512;13.450;2023-05-07T06:33:05;11.60;99.90
50556;DHT22;36508;52.512;13.450;2023-05-07T06:35:31;11.70;99.90
50556;DHT22;36508;52.512;13.450;2023-05-07T06:37:57;11.70;99.90
50556;DHT22;36508;52.512;13.450;2023-05-07T06:40:22;11.70;99.90
50556;DHT22;36508;52.512;13.450;2023-05-07T06:42:48;11.80;99.90
50556;DHT22;36508;52.512;13.450;2023-05-07T06:45:13;11.90;99.90
50556;DHT22;36508;52.512;13.450;2023-05-07T06:47:39;11.90;99.90
50556;DHT22;36508;52.512;13.450;2023-05-07T06:50:05;12.00;99.90
50556;DHT22;36508;52.512;13.450;2023-05-07T06:52:31;12.00;99.90
50556;DHT22;36508;52.512;13.450;2023-05-07T06:54:57;12.00;99.90
50556;DHT22;36508;52.512;13.450;2023-05-07T06:57:23;12.00;99.90
50556;DHT22;36508;52.512;13.450;2023-05-07T06:59:49;12.00;99.90
50556;DHT22;36508;52.512;13.450;2023-05-07T07:02:14;12.10;99.90
50556;DHT22;36508;52.512;13.450;2023-05-07T07:04:41;12.00;99.90
50556;DHT22;36508;52.512;13.450;2023-05-07T07:07:07;12.00;99.90
50556;DHT22;36508;52.512;13.450;2023-05-07T07:09:33;11.90;99.90
50556;DHT22;36508;52.512;13.450;2023-05-07T07:11:58;11.90;99.90
50556;DHT22;36508;52.512;13.450;2023-05-07T07:14:24;11.90;99.90
50556;DHT22;36508;52.512;13.450;2023-05-07T07:16:49;11.90;99.90
50556;DHT22;36508;52.512;13.450;2023-05-07T07:19:16;12.00;99.90
50556;DHT22;36508;52.512;13.450;2023-05-07T07:21:42;12.10;99.90
50556;DHT22;36508;52.512;13.450;2023-05-07T07:24:07;12.20;99.90
50556;DHT22;36508;52.512;13.450;2023-05-07T07:26:33;12.20;99.90
50556;DHT22;36508;52.512;13.450;2023-05-07T07:28:59;12.30;99.90
50556;DHT22;36508;52.512;13.450;2023-05-07T07:31:25;12.20;99.90
50556;DHT22;36508;52.512;13.450;2023-05-07T07:33:50;12.20;99.90
50556;DHT22;36508;52.512;13.450;2023-05-07T07:36:16;12.20;99.90
50556;DHT22;36508;52.512;13.450;2023-05-07T07:38:41;12.30;99.90
50556;DHT22;36508;52.512;13.450;2023-05-07T07:41:10;12.30;99.90
50556;DHT22;36508;52.512;13.450;2023-05-07T07:43:35;12.30;99.90
50556;DHT22;36508;52.512;13.450;2023-05-07T07:46:01;12.40;99.90
50556;DHT22;36508;52.512;13.450;2023-05-07T07:48:27;12.30;99.90
50556;DHT22;36508;52.512;13.450;2023-05-07T07:50:53;12.30;99.90
50556;DHT22;36508;52.512;13.450;2023-05-07T07:53:18;12.20;99.90
50556;DHT22;36508;52.512;13.450;2023-05-07T07:55:44;12.20;99.90
50556;DHT22;36508;52.512;13.450;2023-05-07T07:58:10;12.40;99.90
50556;DHT22;36508;52.512;13.450;2023-05-07T08:00:36;12.50;99.90
50556;DHT22;36508;52.512;13.450;2023-05-07T08:03:01;12.60;99.90
50556;DHT22;36508;52.512;13.450;2023-05-07T08:05:28;12.60;99.90
50556;DHT22;36508;52.512;13.450;2023-05-07T08:07:54;12.50;99.90
50556;DHT22;36508;52.512;13.450;2023-05-07T08:10:20;12.70;99.90
50556;DHT22;36508;52.512;13.450;2023-05-07T08:12:49;12.90;99.90
50556;DHT22;36508;52.512;13.450;2023-05-07T08:15:15;12.90;99.90
50556;DHT22;36508;52.512;13.450;2023-05-07T08:17:41;13.00;99.90
50556;DHT22;36508;52.512;13.450;2023-05-07T08:20:07;13.10;99.90
50556;DHT22;36508;52.512;13.450;2023-05-07T08:22:34;13.10;99.90
50556;DHT22;36508;52.512;13.450;2023-05-07T08:25:00;13.10;99.90
50556;DHT22;36508;52.512;13.450;2023-05-07T08:27:26;13.30;99.90
50556;DHT22;36508;52.512;13.450;2023-05-07T08:29:51;13.40;99.90
50556;DHT22;36508;52.512;13.450;2023-05-07T08:32:17;13.50;99.90
50556;DHT22;36508;52.512;13.450;2023-05-07T08:34:42;13.50;99.90
50556;DHT22;36508;52.512;13.450;2023-05-07T08:37:08;13.50;99.90
50556;DHT22;36508;52.512;13.450;2023-05-07T08:39:34;13.60;99.90
50556;DHT22;36508;52.512;13.450;2023-05-07T08:42:00;13.70;99.90
50556;DHT22;36508;52.512;13.450;2023-05-07T08:44:33;13.80;99.90
50556;DHT22;36508;52.512;13.450;2023-05-07T08:47:01;14.00;99.90
50556;DHT22;36508;52.512;13.450;2023-05-07T08:49:27;14.10;99.90
50556;DHT22;36508;52.512;13.450;2023-05-07T08:51:53;14.30;99.90
50556;DHT22;36508;52.512;13.450;2023-05-07T08:54:20;14.50;99.90
50556;DHT22;36508;52.512;13.450;2023-05-07T08:56:46;14.60;99.90
50556;DHT22;36508;52.512;13.450;2023-05-07T08:59:11;14.70;99.90
50556;DHT22;36508;52.512;13.450;2023-05-07T09:01:37;14.70;99.90
50556;DHT22;36508;52.512;13.450;2023-05-07T09:04:04;14.60;99.90
50556;DHT22;36508;52.512;13.450;2023-05-07T09:06:29;14.60;99.90
50556;DHT22;36508;52.512;13.450;2023-05-07T09:08:55;14.80;99.90
50556;DHT22;36508;52.512;13.450;2023-05-07T09:11:23;14.90;99.90
50556;DHT22;36508;52.512;13.450;2023-05-07T09:13:56;15.00;99.90
50556;DHT22;36508;52.512;13.450;2023-05-07T09:16:24;15.00;99.90
50556;DHT22;36508;52.512;13.450;2023-05-07T09:18:54;15.00;99.90
50556;DHT22;36508;52.512;13.450;2023-05-07T09:21:20;15.00;99.90
50556;DHT22;36508;52.512;13.450;2023-05-07T09:23:50;15.10;99.90
50556;DHT22;36508;52.512;13.450;2023-05-07T09:26:16;15.20;99.90
50556;DHT22;36508;52.512;13.450;2023-05-07T09:28:41;15.30;99.90
50556;DHT22;36508;52.512;13.450;2023-05-07T09:31:09;15.30;99.90
50556;DHT22;36508;52.512;13.450;2023-05-07T09:33:35;15.40;99.90
50556;DHT22;36508;52.512;13.450;2023-05-07T09:36:05;15.40;99.90
50556;DHT22;36508;52.512;13.450;2023-05-07T09:38:32;15.60;99.90
50556;DHT22;36508;52.512;13.450;2023-05-07T09:43:35;15.80;99.90
50556;DHT22;36508;52.512;13.450;2023-05-07T09:46:07;16.00;99.90
50556;DHT22;36508;52.512;13.450;2023-05-07T09:48:38;15.90;99.90
50556;DHT22;36508;52.512;13.450;2023-05-07T09:51:22;15.90;99.90
50556;DHT22;36508;52.512;13.450;2023-05-07T09:53:52;16.00;99.90
50556;DHT22;36508;52.512;13.450;2023-05-07T09:56:18;16.10;99.90
50556;DHT22;36508;52.512;13.450;2023-05-07T09:58:45;16.00;99.90
50556;DHT22;36508;52.512;13.450;2023-05-07T10:01:12;16.20;99.90
50556;DHT22;36508;52.512;13.450;2023-05-07T10:03:40;16.30;99.90
50556;DHT22;36508;52.512;13.450;2023-05-07T10:06:08;16.30;99.90
50556;DHT22;36508;52.512;13.450;2023-05-07T10:08:34;16.40;99.90
50556;DHT22;36508;52.512;13.450;2023-05-07T10:11:01;16.50;99.90
50556;DHT22;36508;52.512;13.450;2023-05-07T10:13:27;16.40;99.90
50556;DHT22;36508;52.512;13.450;2023-05-07T10:15:52;16.10;99.90
50556;DHT22;36508;52.512;13.450;2023-05-07T10:18:20;16.30;99.90
50556;DHT22;36508;52.512;13.450;2023-05-07T10:20:51;16.40;99.90
50556;DHT22;36508;52.512;13.450;2023-05-07T10:23:23;16.60;99.90
50556;DHT22;36508;52.512;13.450;2023-05-07T10:25:49;16.80;99.90
50556;DHT22;36508;52.512;13.450;2023-05-07T10:28:15;17.00;99.90
50556;DHT22;36508;52.512;13.450;2023-05-07T10:33:23;16.80;99.90
50556;DHT22;36508;52.512;13.450;2023-05-07T10:35:50;18.10;99.90
50556;DHT22;36508;52.512;13.450;2023-05-07T10:38:16;18.50;99.90
50556;DHT22;36508;52.512;13.450;2023-05-07T10:40:42;18.40;99.90
50556;DHT22;36508;52.512;13.450;2023-05-07T10:43:09;17.60;99.90
50556;DHT22;36508;52.512;13.450;2023-05-07T10:45:35;16.90;99.90
50556;DHT22;36508;52.512;13.450;2023-05-07T10:50:37;17.50;99.90
50556;DHT22;36508;52.512;13.450;2023-05-07T10:53:29;17.80;99.90
50556;DHT22;36508;52.512;13.450;2023-05-07T10:58:42;17.50;99.90
50556;DHT22;36508;52.512;13.450;2023-05-07T11:01:08;18.30;99.90
50556;DHT22;36508;52.512;13.450;2023-05-07T11:03:35;21.50;99.90
50556;DHT22;36508;52.512;13.450;2023-05-07T11:06:15;23.50;99.90
50556;DHT22;36508;52.512;13.450;2023-05-07T11:08:56;22.30;99.90
50556;DHT22;36508;52.512;13.450;2023-05-07T11:11:47;20.80;99.90
50556;DHT22;36508;52.512;13.450;2023-05-07T11:14:14;21.00;99.90
50556;DHT22;36508;52.512;13.450;2023-05-07T11:17:31;20.60;99.90
50556;DHT22;36508;52.512;13.450;2023-05-07T11:20:01;20.00;99.90
50556;DHT22;36508;52.512;13.450;2023-05-07T11:25:00;20.50;99.90
50556;DHT22;36508;52.512;13.450;2023-05-07T11:27:26;20.40;99.90
50556;DHT22;36508;52.512;13.450;2023-05-07T11:29:52;23.50;99.90
50556;DHT22;36508;52.512;13.450;2023-05-07T11:32:27;25.00;99.90
50556;DHT22;36508;52.512;13.450;2023-05-07T11:34:54;26.30;98.90
50556;DHT22;36508;52.512;13.450;2023-05-07T11:37:21;26.40;95.90
50556;DHT22;36508;52.512;13.450;2023-05-07T11:39:47;25.70;94.70
50556;DHT22;36508;52.512;13.450;2023-05-07T11:42:45;23.70;95.50
50556;DHT22;36508;52.512;13.450;2023-05-07T11:45:11;22.10;97.50
50556;DHT22;36508;52.512;13.450;2023-05-07T11:47:36;21.30;99.20
50556;DHT22;36508;52.512;13.450;2023-05-07T11:50:04;22.50;98.80
50556;DHT22;36508;52.512;13.450;2023-05-07T11:52:31;22.10;97.60
50556;DHT22;36508;52.512;13.450;2023-05-07T11:54:58;20.50;99.00
50556;DHT22;36508;52.512;13.450;2023-05-07T11:57:26;19.80;99.90
50556;DHT22;36508;52.512;13.450;2023-05-07T11:59:55;19.40;99.90
50556;DHT22;36508;52.512;13.450;2023-05-07T12:02:21;19.50;99.90
50556;DHT22;36508;52.512;13.450;2023-05-07T12:04:47;19.60;99.90
50556;DHT22;36508;52.512;13.450;2023-05-07T12:07:13;19.70;99.90
50556;DHT22;36508;52.512;13.450;2023-05-07T12:09:40;19.20;99.90
50556;DHT22;36508;52.512;13.450;2023-05-07T12:12:06;19.10;99.90
50556;DHT22;36508;52.512;13.450;2023-05-07T12:14:32;19.30;99.90
50556;DHT22;36508;52.512;13.450;2023-05-07T12:17:01;19.30;99.90
50556;DHT22;36508;52.512;13.450;2023-05-07T12:19:31;19.60;99.90
50556;DHT22;36508;52.512;13.450;2023-05-07T12:21:57;19.40;99.90
50556;DHT22;36508;52.512;13.450;2023-05-07T12:24:22;19.00;99.90
50556;DHT22;36508;52.512;13.450;2023-05-07T12:26:48;18.70;99.90
50556;DHT22;36508;52.512;13.450;2023-05-07T12:29:14;18.70;99.90
50556;DHT22;36508;52.512;13.450;2023-05-07T12:31:41;18.40;99.90
50556;DHT22;36508;52.512;13.450;2023-05-07T12:34:07;18.50;99.90
50556;DHT22;36508;52.512;13.450;2023-05-07T12:36:39;18.90;99.90
50556;DHT22;36508;52.512;13.450;2023-05-07T12:39:06;19.30;99.90
50556;DHT22;36508;52.512;13.450;2023-05-07T12:41:51;19.80;99.90
50556;DHT22;36508;52.512;13.450;2023-05-07T12:44:18;20.20;99.90
50556;DHT22;36508;52.512;13.450;2023-05-07T12:46:43;20.20;99.90
50556;DHT22;36508;52.512;13.450;2023-05-07T12:49:09;20.50;99.90
50556;DHT22;36508;52.512;13.450;2023-05-07T12:51:35;21.20;99.90
50556;DHT22;36508;52.512;13.450;2023-05-07T12:54:01;20.80;99.40
50556;DHT22;36508;52.512;13.450;2023-05-07T12:56:26;20.40;99.90
50556;DHT22;36508;52.512;13.450;2023-05-07T12:58:57;20.10;99.90
50556;DHT22;36508;52.512;13.450;2023-05-07T13:01:29;19.80;99.90
50556;DHT22;36508;52.512;13.450;2023-05-07T13:03:55;19.60;99.90
50556;DHT22;36508;52.512;13.450;2023-05-07T13:06:21;19.80;99.80
50556;DHT22;36508;52.512;13.450;2023-05-07T13:08:46;19.40;99.90
50556;DHT22;36508;52.512;13.450;2023-05-07T13:11:13;19.50;99.90
50556;DHT22;36508;52.512;13.450;2023-05-07T13:13:40;19.60;99.80
50556;DHT22;36508;52.512;13.450;2023-05-07T13:16:08;19.80;99.50
50556;DHT22;36508;52.512;13.450;2023-05-07T13:18:34;19.80;99.10
50556;DHT22;36508;52.512;13.450;2023-05-07T13:21:00;19.90;98.70
50556;DHT22;36508;52.512;13.450;2023-05-07T13:23:27;19.90;99.60
50556;DHT22;36508;52.512;13.450;2023-05-07T13:25:53;19.80;99.90
50556;DHT22;36508;52.512;13.450;2023-05-07T13:28:25;19.40;99.90
50556;DHT22;36508;52.512;13.450;2023-05-07T13:30:52;19.50;99.90
50556;DHT22;36508;52.512;13.450;2023-05-07T13:33:18;19.90;99.90
50556;DHT22;36508;52.512;13.450;2023-05-07T13:35:44;20.20;99.90
50556;DHT22;36508;52.512;13.450;2023-05-07T13:38:10;20.10;99.70
50556;DHT22;36508;52.512;13.450;2023-05-07T13:40:35;19.80;99.70
50556;DHT22;36508;52.512;13.450;2023-05-07T13:43:01;19.50;99.90
50556;DHT22;36508;52.512;13.450;2023-05-07T13:45:29;19.30;99.90
50556;DHT22;36508;52.512;13.450;2023-05-07T13:47:56;19.40;99.90
50556;DHT22;36508;52.512;13.450;2023-05-07T13:50:21;19.70;99.90
50556;DHT22;36508;52.512;13.450;2023-05-07T13:52:47;19.70;99.80
50556;DHT22;36508;52.512;13.450;2023-05-07T13:55:17;19.50;99.90
50556;DHT22;36508;52.512;13.450;2023-05-07T13:57:43;19.40;99.90
50556;DHT22;36508;52.512;13.450;2023-05-07T14:00:09;19.60;99.90
50556;DHT22;36508;52.512;13.450;2023-05-07T14:02:35;19.60;99.80
50556;DHT22;36508;52.512;13.450;2023-05-07T14:05:01;19.40;99.90
50556;DHT22;36508;52.512;13.450;2023-05-07T14:07:26;19.20;99.90
50556;DHT22;36508;52.512;13.450;2023-05-07T14:09:52;19.00;99.90
50556;DHT22;36508;52.512;13.450;2023-05-07T14:12:17;18.90;99.90
50556;DHT22;36508;52.512;13.450;2023-05-07T14:14:43;18.70;99.90
50556;DHT22;36508;52.512;13.450;2023-05-07T14:17:08;18.60;99.90
50556;DHT22;36508;52.512;13.450;2023-05-07T14:19:34;18.60;99.90
50556;DHT22;36508;52.512;13.450;2023-05-07T14:22:00;18.70;99.90
50556;DHT22;36508;52.512;13.450;2023-05-07T14:24:25;18.70;99.90
50556;DHT22;36508;52.512;13.450;2023-05-07T14:26:51;18.50;99.90
50556;DHT22;36508;52.512;13.450;2023-05-07T14:29:17;18.20;99.90
50556;DHT22;36508;52.512;13.450;2023-05-07T14:31:44;18.00;99.90
50556;DHT22;36508;52.512;13.450;2023-05-07T14:34:10;18.20;99.90
50556;DHT22;36508;52.512;13.450;2023-05-07T14:36:36;18.40;99.90
50556;DHT22;36508;52.512;13.450;2023-05-07T14:39:03;18.50;99.90
50556;DHT22;36508;52.512;13.450;2023-05-07T14:41:29;18.30;99.90
50556;DHT22;36508;52.512;13.450;2023-05-07T14:43:55;18.30;99.90
50556;DHT22;36508;52.512;13.450;2023-05-07T14:46:20;18.10;99.90
50556;DHT22;36508;52.512;13.450;2023-05-07T14:48:46;18.10;99.90
50556;DHT22;36508;52.512;13.450;2023-05-07T14:51:12;18.20;99.90
50556;DHT22;36508;52.512;13.450;2023-05-07T14:53:38;18.70;99.90
50556;DHT22;36508;52.512;13.450;2023-05-07T14:56:04;19.00;99.90
50556;DHT22;36508;52.512;13.450;2023-05-07T14:58:30;19.00;99.90
50556;DHT22;36508;52.512;13.450;2023-05-07T15:00:56;19.00;99.90
50556;DHT22;36508;52.512;13.450;2023-05-07T15:03:22;19.20;99.90
50556;DHT22;36508;52.512;13.450;2023-05-07T15:05:48;19.50;99.90
50556;DHT22;36508;52.512;13.450;2023-05-07T15:08:17;19.90;99.80
50556;DHT22;36508;52.512;13.450;2023-05-07T15:10:42;20.20;99.70
50556;DHT22;36508;52.512;13.450;2023-05-07T15:13:09;20.10;99.90
50556;DHT22;36508;52.512;13.450;2023-05-07T15:15:35;20.10;99.50
50556;DHT22;36508;52.512;13.450;2023-05-07T15:18:02;19.90;99.50
50556;DHT22;36508;52.512;13.450;2023-05-07T15:20:27;19.60;99.70
50556;DHT22;36508;52.512;13.450;2023-05-07T15:22:53;19.50;99.90
50556;DHT22;36508;52.512;13.450;2023-05-07T15:25:19;19.10;99.90